sensor_id;sensor_type;location;lat;lon;timestamp;pressure;altitude;pressure_sealevel;temperature;humidity
6128;BME280;7073;42.672;23.256;2023-01-20T08:56:49;93033.31;;;11.16;100.00
6128;BME280;7073;42.672;23.256;2023-01-20T08:59:16;93044.59;;;12.61;100.00
6128;BME280;7073;42.672;23.256;2023-01-20T09:01:43;93054.09;;;12.00;100.00
6128;BME280;7073;42.672;23.256;2023-01-20T09:04:10;93054.72;;;12.27;99.58
6128;BME280;7073;42.672;23.256;2023-01-20T09:06:39;93053.94;;;12.26;99.41
6128;BME280;7073;42.672;23.256;2023-01-20T09:09:06;93043.22;;;12.28;98.08
6128;BME280;7073;42.672;23.256;2023-01-20T09:11:33;92988.56;;;11.34;98.18
6128;BME280;7073;42.672;23.256;2023-01-20T09:14:01;93066.72;;;11.66;99.51
6128;BME280;7073;42.672;23.256;2023-01-20T09:16:28;93041.56;;;12.02;99.20
6128;BME280;7073;42.672;23.256;2023-01-20T09:18:55;93049.41;;;12.07;97.66
6128;BME280;7073;42.672;23.256;2023-01-20T09:21:22;93051.97;;;11.92;99.02
6128;BME280;7073;42.672;23.256;2023-01-20T09:23:49;93044.28;;;12.37;97.85
6128;BME280;7073;42.672;23.256;2023-01-20T09:26:16;93057.53;;;12.15;96.85
6128;BME280;7073;42.672;23.256;2023-01-20T09:28:43;93051.53;;;12.10;97.43
6128;BME280;7073;42.672;23.256;2023-01-20T09:31:12;93014.44;;;12.08;97.25
6128;BME280;7073;42.672;23.256;2023-01-20T09:33:39;93029.84;;;11.47;97.87
6128;BME280;7073;42.672;23.256;2023-01-20T09:36:08;93040.53;;;11.98;98.03
6128;BME280;7073;42.672;23.256;2023-01-20T09:38:35;93047.88;;;11.59;99.06
6128;BME280;7073;42.672;23.256;2023-01-20T09:41:26;93035.34;;;12.13;98.08
6128;BME280;7073;42.672;23.256;2023-01-20T09:44:31;93031.72;;;11.62;99.25
6128;BME280;7073;42.672;23.256;2023-01-20T09:47:13;93041.88;;;11.53;98.26
6128;BME280;7073;42.672;23.256;2023-01-20T09:50:16;93011.88;;;11.14;99.07
6128;BME280;7073;42.672;23.256;2023-01-20T09:53:04;93035.97;;;11.26;100.00
6128;BME280;7073;42.672;23.256;2023-01-20T09:55:48;93021.91;;;11.27;100.00
6128;BME280;7073;42.672;23.256;2023-01-20T09:58:22;93014.72;;;11.54;99.05
6128;BME280;7073;42.672;23.256;2023-01-20T10:00:54;93008.53;;;11.65;97.79
6128;BME280;7073;42.672;23.256;2023-01-20T10:03:29;93022.06;;;11.57;97.70
6128;BME280;7073;42.672;23.256;2023-01-20T10:06:03;93018.44;;;11.63;98.61
6128;BME280;7073;42.672;23.256;2023-01-20T10:08:38;93019.34;;;11.89;98.15
6128;BME280;7073;42.672;23.256;2023-01-20T10:11:08;92990.38;;;11.96;97.62
6128;BME280;7073;42.672;23.256;2023-01-20T10:13:40;93005.78;;;11.87;100.00
6128;BME280;7073;42.672;23.256;2023-01-20T10:16:19;92997.00;;;12.34;99.02
6128;BME280;7073;42.672;23.256;2023-01-20T10:18:52;92976.09;;;12.23;98.10
6128;BME280;7073;42.672;23.256;2023-01-20T10:21:27;92970.09;;;12.38;97.54
6128;BME280;7073;42.672;23.256;2023-01-20T10:23:59;92942.59;;;11.75;95.99
6128;BME280;7073;42.672;23.256;2023-01-20T10:26:31;92944.09;;;11.66;97.58
6128;BME280;7073;42.672;23.256;2023-01-20T10:29:01;92975.78;;;12.00;98.72
6128;BME280;7073;42.672;23.256;2023-01-20T10:31:32;92982.53;;;11.81;99.44
6128;BME280;7073;42.672;23.256;2023-01-20T10:34:08;92977.28;;;11.76;99.18
6128;BME280;7073;42.672;23.256;2023-01-20T10:36:37;92985.28;;;11.59;98.69
6128;BME280;7073;42.672;23.256;2023-01-20T10:39:12;92985.97;;;12.06;96.22
6128;BME280;7073;42.672;23.256;2023-01-20T10:41:49;92978.91;;;11.97;95.60
6128;BME280;7073;42.672;23.256;2023-01-20T10:44:20;92955.38;;;11.72;95.61
6128;BME280;7073;42.672;23.256;2023-01-20T10:47:01;92955.84;;;11.63;95.58
6128;BME280;7073;42.672;23.256;2023-01-20T10:49:48;92972.75;;;11.56;99.73
6128;BME280;7073;42.672;23.256;2023-01-20T10:52:33;92929.25;;;11.66;99.83
6128;BME280;7073;42.672;23.256;2023-01-20T10:55:16;92972.06;;;11.71;97.51
6128;BME280;7073;42.672;23.256;2023-01-20T10:57:47;92989.03;;;11.26;99.31
6128;BME280;7073;42.672;23.256;2023-01-20T11:00:19;92934.41;;;10.94;100.00
6128;BME280;7073;42.672;23.256;2023-01-20T11:02:48;92955.78;;;10.60;100.00
6128;BME280;7073;42.672;23.256;2023-01-20T11:05:19;92949.59;;;10.66;100.00
6128;BME280;7073;42.672;23.256;2023-01-20T11:07:49;92968.28;;;10.58;100.00
6128;BME280;7073;42.672;23.256;2023-01-20T11:10:19;92962.47;;;10.46;100.00
6128;BME280;7073;42.672;23.256;2023-01-20T11:12:49;92968.66;;;10.76;100.00
6128;BME280;7073;42.672;23.256;2023-01-20T11:15:18;92983.03;;;10.47;100.00
6128;BME280;7073;42.672;23.256;2023-01-20T11:17:47;92957.44;;;10.39;100.00
6128;BME280;7073;42.672;23.256;2023-01-20T11:20:35;92962.50;;;9.97;100.00
6128;BME280;7073;42.672;23.256;2023-01-20T11:23:02;92959.94;;;9.75;100.00
6128;BME280;7073;42.672;23.256;2023-01-20T11:25:29;92966.47;;;9.56;98.75
6128;BME280;7073;42.672;23.256;2023-01-20T11:27:56;92978.81;;;9.44;99.67
6128;BME280;7073;42.672;23.256;2023-01-20T11:30:25;92936.50;;;8.84;100.00
6128;BME280;7073;42.672;23.256;2023-01-20T11:33:15;92946.69;;;8.90;100.00
6128;BME280;7073;42.672;23.256;2023-01-20T11:35:57;92966.78;;;8.78;100.00
6128;BME280;7073;42.672;23.256;2023-01-20T11:38:27;92978.13;;;8.39;99.22
6128;BME280;7073;42.672;23.256;2023-01-20T11:40:56;92991.66;;;8.41;100.00
6128;BME280;7073;42.672;23.256;2023-01-20T11:43:30;93003.38;;;8.60;100.00
6128;BME280;7073;42.672;23.256;2023-01-20T11:46:10;92940.81;;;8.12;100.00
6128;BME280;7073;42.672;23.256;2023-01-20T11:48:37;93020.22;;;8.13;100.00
6128;BME280;7073;42.672;23.256;2023-01-20T11:51:17;93025.63;;;8.11;100.00
6128;BME280;7073;42.672;23.256;2023-01-20T11:53:45;92962.91;;;7.69;100.00
6128;BME280;7073;42.672;23.256;2023-01-20T11:56:18;92999.19;;;7.97;100.00
6128;BME280;7073;42.672;23.256;2023-01-20T11:58:52;93029.56;;;7.46;100.00
6128;BME280;7073;42.672;23.256;2023-01-20T12:01:23;92973.91;;;6.97;100.00
6128;BME280;7073;42.672;23.256;2023-01-20T12:04:18;93050.00;;;7.19;100.00
6128;BME280;7073;42.672;23.256;2023-01-20T12:06:52;93036.69;;;6.57;100.00
6128;BME280;7073;42.672;23.256;2023-01-20T12:09:25;93074.47;;;6.17;100.00
6128;BME280;7073;42.672;23.256;2023-01-20T12:11:57;93065.66;;;5.95;100.00
6128;BME280;7073;42.672;23.256;2023-01-20T12:14:28;93078.84;;;6.05;100.00
6128;BME280;7073;42.672;23.256;2023-01-20T12:17:07;93101.38;;;5.98;100.00
6128;BME280;7073;42.672;23.256;2023-01-20T12:22:25;93036.81;;;5.62;100.00
6128;BME280;7073;42.672;23.256;2023-01-20T12:24:57;93046.34;;;5.79;100.00
6128;BME280;7073;42.672;23.256;2023-01-20T12:27:40;93016.38;;;5.60;100.00
6128;BME280;7073;42.672;23.256;2023-01-20T12:30:23;93051.56;;;5.73;100.00
6128;BME280;7073;42.672;23.256;2023-01-20T12:32:53;93065.78;;;6.00;100.00
6128;BME280;7073;42.672;23.256;2023-01-20T12:35:22;93073.97;;;5.97;100.00
6128;BME280;7073;42.672;23.256;2023-01-20T12:37:56;93108.56;;;5.78;100.00
6128;BME280;7073;42.672;23.256;2023-01-20T12:40:30;93064.09;;;5.21;100.00
6128;BME280;7073;42.672;23.256;2023-01-20T12:43:27;93087.09;;;5.23;100.00
6128;BME280;7073;42.672;23.256;2023-01-20T12:46:08;93132.47;;;5.55;100.00
6128;BME280;7073;42.672;23.256;2023-01-20T12:48:45;93131.94;;;5.65;100.00
6128;BME280;7073;42.672;23.256;2023-01-20T12:51:28;93117.47;;;5.82;100.00
6128;BME280;7073;42.672;23.256;2023-01-20T12:54:23;93125.28;;;5.93;100.00
6128;BME280;7073;42.672;23.256;2023-01-20T12:57:01;93068.22;;;5.58;100.00
6128;BME280;7073;42.672;23.256;2023-01-20T12:59:39;93061.91;;;5.73;100.00
6128;BME280;7073;42.672;23.256;2023-01-20T13:02:47;93119.31;;;6.11;100.00
6128;BME280;7073;42.672;23.256;2023-01-20T13:05:32;93080.78;;;5.91;100.00
6128;BME280;7073;42.672;23.256;2023-01-20T13:08:14;93121.75;;;6.06;100.00
6128;BME280;7073;42.672;23.256;2023-01-20T13:10:50;93130.06;;;6.26;100.00
6128;BME280;7073;42.672;23.256;2023-01-20T13:13:29;93099.94;;;6.02;100.00
6128;BME280;7073;42.672;23.256;2023-01-20T13:16:04;93135.25;;;6.38;100.00
6128;BME280;7073;42.672;23.256;2023-01-20T13:18:43;93102.75;;;6.30;100.00
6128;BME280;7073;42.672;23.256;2023-01-20T13:21:14;93126.56;;;6.21;100.00
6128;BME280;7073;42.672;23.256;2023-01-20T13:23:44;93134.38;;;6.44;100.00
6128;BME280;7073;42.672;23.256;2023-01-20T13:26:13;93152.19;;;6.52;100.00
6128;BME280;7073;42.672;23.256;2023-01-20T13:28:50;93120.34;;;6.51;100.00
6128;BME280;7073;42.672;23.256;2023-01-20T13:31:42;93157.72;;;6.67;100.00
6128;BME280;7073;42.672;23.256;2023-01-20T13:34:31;93105.75;;;6.27;100.00
6128;BME280;7073;42.672;23.256;2023-01-20T13:37:21;93147.25;;;6.50;100.00
6128;BME280;7073;42.672;23.256;2023-01-20T13:39:49;93147.94;;;6.57;100.00
6128;BME280;7073;42.672;23.256;2023-01-20T13:42:30;93118.31;;;6.12;100.00
6128;BME280;7073;42.672;23.256;2023-01-20T13:45:24;93099.81;;;5.97;100.00
6128;BME280;7073;42.672;23.256;2023-01-20T13:48:20;93104.19;;;5.96;100.00
6128;BME280;7073;42.672;23.256;2023-01-20T13:50:47;93160.09;;;6.09;100.00
6128;BME280;7073;42.672;23.256;2023-01-20T13:53:26;93109.63;;;5.70;100.00
6128;BME280;7073;42.672;23.256;2023-01-20T13:56:00;93127.16;;;5.86;100.00
6128;BME280;7073;42.672;23.256;2023-01-20T13:58:30;93174.91;;;6.50;100.00
6128;BME280;7073;42.672;23.256;2023-01-20T14:00:58;93182.28;;;7.29;100.00
6128;BME280;7073;42.672;23.256;2023-01-20T14:03:27;93189.75;;;7.60;100.00
6128;BME280;7073;42.672;23.256;2023-01-20T14:05:56;93197.63;;;7.77;100.00
6128;BME280;7073;42.672;23.256;2023-01-20T14:08:25;93156.38;;;7.75;100.00
6128;BME280;7073;42.672;23.256;2023-01-20T14:11:05;93173.19;;;8.36;100.00
6128;BME280;7073;42.672;23.256;2023-01-20T14:13:33;93192.69;;;8.67;100.00
6128;BME280;7073;42.672;23.256;2023-01-20T14:16:00;93148.72;;;8.20;100.00
6128;BME280;7073;42.672;23.256;2023-01-20T14:18:27;93180.88;;;8.59;100.00
6128;BME280;7073;42.672;23.256;2023-01-20T14:20:59;93215.50;;;8.65;100.00
6128;BME280;7073;42.672;23.256;2023-01-20T14:23:32;93180.88;;;8.31;100.00
6128;BME280;7073;42.672;23.256;2023-01-20T14:26:03;93222.38;;;8.31;100.00
6128;BME280;7073;42.672;23.256;2023-01-20T14:28:31;93194.25;;;7.42;100.00
6128;BME280;7073;42.672;23.256;2023-01-20T14:31:21;93194.13;;;7.36;100.00
6128;BME280;7073;42.672;23.256;2023-01-20T14:34:00;93189.16;;;7.35;100.00
6128;BME280;7073;42.672;23.256;2023-01-20T14:36:30;93189.84;;;7.19;100.00
6128;BME280;7073;42.672;23.256;2023-01-20T14:38:59;93162.91;;;6.55;100.00
6128;BME280;7073;42.672;23.256;2023-01-20T14:41:33;93158.19;;;6.34;100.00
6128;BME280;7073;42.672;23.256;2023-01-20T14:44:01;93203.94;;;6.34;100.00
6128;BME280;7073;42.672;23.256;2023-01-20T14:46:30;93180.69;;;6.34;100.00
6128;BME280;7073;42.672;23.256;2023-01-20T14:48:58;93230.59;;;6.34;100.00
6128;BME280;7073;42.672;23.256;2023-01-20T14:51:25;93217.22;;;5.83;100.00
6128;BME280;7073;42.672;23.256;2023-01-20T14:54:27;93234.19;;;5.97;100.00
6128;BME280;7073;42.672;23.256;2023-01-20T14:56:56;93238.47;;;5.85;100.00
6128;BME280;7073;42.672;23.256;2023-01-20T14:59:24;93206.34;;;5.56;100.00
6128;BME280;7073;42.672;23.256;2023-01-20T15:01:59;93262.00;;;5.52;100.00
6128;BME280;7073;42.672;23.256;2023-01-20T15:04:34;93258.78;;;5.56;100.00
6128;BME280;7073;42.672;23.256;2023-01-20T15:07:01;93274.88;;;5.34;100.00
6128;BME280;7073;42.672;23.256;2023-01-20T15:09:30;93258.31;;;5.41;100.00
6128;BME280;7073;42.672;23.256;2023-01-20T15:12:35;93281.09;;;5.26;100.00
6128;BME280;7073;42.672;23.256;2023-01-20T15:15:18;93258.78;;;5.01;100.00
6128;BME280;7073;42.672;23.256;2023-01-20T15:18:14;93248.13;;;4.97;100.00
6128;BME280;7073;42.672;23.256;2023-01-20T15:20:43;93289.66;;;5.20;100.00
6128;BME280;7073;42.672;23.256;2023-01-20T15:23:17;93279.16;;;5.15;100.00
6128;BME280;7073;42.672;23.256;2023-01-20T15:25:45;93274.78;;;4.84;100.00
6128;BME280;7073;42.672;23.256;2023-01-20T15:28:24;93264.34;;;4.66;100.00
6128;BME280;7073;42.672;23.256;2023-01-20T15:30:53;93301.84;;;4.69;100.00
6128;BME280;7073;42.672;23.256;2023-01-20T15:33:22;93324.34;;;4.93;100.00
6128;BME280;7073;42.672;23.256;2023-01-20T15:35:53;93286.63;;;4.61;100.00
6128;BME280;7073;42.672;23.256;2023-01-20T15:38:20;-9229.16;;;-143.30;100.00
6128;BME280;7073;42.672;23.256;2023-01-20T15:40:47;66884.56;;;-143.30;100.00
6128;BME280;7073;42.672;23.256;2023-01-20T15:43:15;66884.56;;;-143.30;100.00
6128;BME280;7073;42.672;23.256;2023-01-20T15:45:42;66884.56;;;-143.30;100.00
6128;BME280;7073;42.672;23.256;2023-01-20T15:48:13;66884.56;;;-143.30;100.00
6128;BME280;7073;42.672;23.256;2023-01-20T15:50:43;66884.56;;;-143.30;100.00
6128;BME280;7073;42.672;23.256;2023-01-20T15:53:10;66884.56;;;-143.30;100.00
6128;BME280;7073;42.672;23.256;2023-01-20T15:55:44;66884.56;;;-143.30;100.00
6128;BME280;7073;42.672;23.256;2023-01-20T15:58:20;66884.56;;;-143.30;100.00
6128;BME280;7073;42.672;23.256;2023-01-20T16:00:47;66884.56;;;-143.30;100.00
6128;BME280;7073;42.672;23.256;2023-01-20T16:03:14;66884.56;;;-143.30;100.00
6128;BME280;7073;42.672;23.256;2023-01-20T16:05:42;66884.56;;;-143.30;100.00
6128;BME280;7073;42.672;23.256;2023-01-20T16:08:13;66884.56;;;-143.30;100.00
6128;BME280;7073;42.672;23.256;2023-01-20T16:10:40;66884.56;;;-143.30;100.00
6128;BME280;7073;42.672;23.256;2023-01-20T16:13:07;66884.56;;;-143.30;100.00
6128;BME280;7073;42.672;23.256;2023-01-20T16:15:35;66884.56;;;-143.30;100.00
6128;BME280;7073;42.672;23.256;2023-01-20T16:18:02;66884.56;;;-143.30;100.00
6128;BME280;7073;42.672;23.256;2023-01-20T16:20:29;66884.56;;;-143.30;100.00
6128;BME280;7073;42.672;23.256;2023-01-20T16:22:58;66884.56;;;-143.30;100.00
6128;BME280;7073;42.672;23.256;2023-01-20T16:25:25;66884.56;;;-143.30;100.00
6128;BME280;7073;42.672;23.256;2023-01-20T16:27:52;66884.56;;;-143.30;100.00
6128;BME280;7073;42.672;23.256;2023-01-20T16:30:20;66884.56;;;-143.30;100.00
6128;BME280;7073;42.672;23.256;2023-01-20T16:32:48;66884.56;;;-143.30;100.00
6128;BME280;7073;42.672;23.256;2023-01-20T16:35:17;66884.56;;;-143.30;100.00
6128;BME280;7073;42.672;23.256;2023-01-20T16:37:45;66884.56;;;-143.30;100.00
6128;BME280;7073;42.672;23.256;2023-01-20T16:40:15;66884.56;;;-143.30;100.00
6128;BME280;7073;42.672;23.256;2023-01-20T16:42:42;66884.56;;;-143.30;100.00
6128;BME280;7073;42.672;23.256;2023-01-20T16:45:23;66884.56;;;-143.30;100.00
6128;BME280;7073;42.672;23.256;2023-01-20T16:47:50;66884.56;;;-143.30;100.00
6128;BME280;7073;42.672;23.256;2023-01-20T16:50:17;66884.56;;;-143.30;100.00
6128;BME280;7073;42.672;23.256;2023-01-20T16:52:44;66884.56;;;-143.30;100.00
6128;BME280;7073;42.672;23.256;2023-01-20T16:55:11;66884.56;;;-143.30;100.00
6128;BME280;7073;42.672;23.256;2023-01-20T16:57:40;66884.56;;;-143.30;100.00
6128;BME280;7073;42.672;23.256;2023-01-20T17:00:08;66884.56;;;-143.30;100.00
6128;BME280;7073;42.672;23.256;2023-01-20T17:02:35;66884.56;;;-143.30;100.00
6128;BME280;7073;42.672;23.256;2023-01-20T17:05:04;66884.56;;;-143.30;100.00
6128;BME280;7073;42.672;23.256;2023-01-20T17:07:32;66884.56;;;-143.30;100.00
6128;BME280;7073;42.672;23.256;2023-01-20T17:09:58;66884.56;;;-143.30;100.00
6128;BME280;7073;42.672;23.256;2023-01-20T17:12:25;66884.56;;;-143.30;100.00
6128;BME280;7073;42.672;23.256;2023-01-20T17:14:53;66884.56;;;-143.30;100.00
6128;BME280;7073;42.672;23.256;2023-01-20T17:17:20;66884.56;;;-143.30;100.00
6128;BME280;7073;42.672;23.256;2023-01-20T17:19:48;66884.56;;;-143.30;100.00
6128;BME280;7073;42.672;23.256;2023-01-20T17:22:15;66884.56;;;-143.30;100.00
6128;BME280;7073;42.672;23.256;2023-01-20T17:24:41;66884.56;;;-143.30;100.00
6128;BME280;7073;42.672;23.256;2023-01-20T17:27:08;66884.56;;;-143.30;100.00
6128;BME280;7073;42.672;23.256;2023-01-20T17:29:35;66884.56;;;-143.30;100.00
6128;BME280;7073;42.672;23.256;2023-01-20T17:32:04;66884.56;;;-143.30;100.00
6128;BME280;7073;42.672;23.256;2023-01-20T17:34:31;66884.56;;;-143.30;100.00
6128;BME280;7073;42.672;23.256;2023-01-20T17:36:57;66884.56;;;-143.30;100.00
6128;BME280;7073;42.672;23.256;2023-01-20T17:39:24;66884.56;;;-143.30;100.00
6128;BME280;7073;42.672;23.256;2023-01-20T17:41:51;66884.56;;;-143.30;100.00
6128;BME280;7073;42.672;23.256;2023-01-20T17:44:18;66884.56;;;-143.30;100.00
6128;BME280;7073;42.672;23.256;2023-01-20T17:46:46;66884.56;;;-143.30;100.00
6128;BME280;7073;42.672;23.256;2023-01-20T17:49:15;66884.56;;;-143.30;100.00
6128;BME280;7073;42.672;23.256;2023-01-20T17:51:42;66884.56;;;-143.30;100.00
6128;BME280;7073;42.672;23.256;2023-01-20T17:54:09;66884.56;;;-143.30;100.00
6128;BME280;7073;42.672;23.256;2023-01-20T17:56:36;66884.56;;;-143.30;100.00
6128;BME280;7073;42.672;23.256;2023-01-20T17:59:03;66884.56;;;-143.30;100.00
6128;BME280;7073;42.672;23.256;2023-01-20T18:01:30;66884.56;;;-143.30;100.00
6128;BME280;7073;42.672;23.256;2023-01-20T18:03:58;66884.56;;;-143.30;100.00
6128;BME280;7073;42.672;23.256;2023-01-20T18:06:27;66884.56;;;-143.30;100.00
6128;BME280;7073;42.672;23.256;2023-01-20T18:08:56;66884.56;;;-143.30;100.00
6128;BME280;7073;42.672;23.256;2023-01-20T18:11:24;66884.56;;;-143.30;100.00
6128;BME280;7073;42.672;23.256;2023-01-20T18:13:53;66884.56;;;-143.30;100.00
6128;BME280;7073;42.672;23.256;2023-01-20T18:16:25;66884.56;;;-143.30;100.00
6128;BME280;7073;42.672;23.256;2023-01-20T18:18:52;66884.56;;;-143.30;100.00
6128;BME280;7073;42.672;23.256;2023-01-20T18:21:24;66884.56;;;-143.30;100.00
6128;BME280;7073;42.672;23.256;2023-01-20T18:23:53;66884.56;;;-143.30;100.00
6128;BME280;7073;42.672;23.256;2023-01-20T18:26:23;66884.56;;;-143.30;100.00
6128;BME280;7073;42.672;23.256;2023-01-20T18:28:52;66884.56;;;-143.30;100.00
6128;BME280;7073;42.672;23.256;2023-01-20T18:31:20;66884.56;;;-143.30;100.00
6128;BME280;7073;42.672;23.256;2023-01-20T18:33:49;66884.56;;;-143.30;100.00
6128;BME280;7073;42.672;23.256;2023-01-20T18:36:17;66884.56;;;-143.30;100.00
6128;BME280;7073;42.672;23.256;2023-01-20T18:38:53;66884.56;;;-143.30;100.00
6128;BME280;7073;42.672;23.256;2023-01-20T18:41:21;66884.56;;;-143.30;100.00
6128;BME280;7073;42.672;23.256;2023-01-20T18:43:48;66884.56;;;-143.30;100.00
6128;BME280;7073;42.672;23.256;2023-01-20T18:46:15;66884.56;;;-143.30;100.00
6128;BME280;7073;42.672;23.256;2023-01-20T18:48:44;66884.56;;;-143.30;100.00
6128;BME280;7073;42.672;23.256;2023-01-20T18:51:11;66884.56;;;-143.30;100.00
6128;BME280;7073;42.672;23.256;2023-01-20T18:53:40;66884.56;;;-143.30;100.00
6128;BME280;7073;42.672;23.256;2023-01-20T18:56:11;66884.56;;;-143.30;100.00
6128;BME280;7073;42.672;23.256;2023-01-20T18:58:39;66884.56;;;-143.30;100.00
6128;BME280;7073;42.672;23.256;2023-01-20T19:01:12;66884.56;;;-143.30;100.00
6128;BME280;7073;42.672;23.256;2023-01-20T19:03:39;66884.56;;;-143.30;100.00
6128;BME280;7073;42.672;23.256;2023-01-20T19:06:08;66884.56;;;-143.30;100.00
6128;BME280;7073;42.672;23.256;2023-01-20T19:08:36;66884.56;;;-143.30;100.00
6128;BME280;7073;42.672;23.256;2023-01-20T19:11:04;66884.56;;;-143.30;100.00
6128;BME280;7073;42.672;23.256;2023-01-20T19:13:34;66884.56;;;-143.30;100.00
6128;BME280;7073;42.672;23.256;2023-01-20T19:16:01;66884.56;;;-143.30;100.00
6128;BME280;7073;42.672;23.256;2023-01-20T19:18:28;66884.56;;;-143.30;100.00
6128;BME280;7073;42.672;23.256;2023-01-20T19:20:54;66884.56;;;-143.30;100.00
6128;BME280;7073;42.672;23.256;2023-01-20T19:23:21;66884.56;;;-143.30;100.00
6128;BME280;7073;42.672;23.256;2023-01-20T19:25:58;66884.56;;;-143.30;100.00
6128;BME280;7073;42.672;23.256;2023-01-20T19:28:25;66884.56;;;-143.30;100.00
6128;BME280;7073;42.672;23.256;2023-01-20T19:30:53;66884.56;;;-143.30;100.00
6128;BME280;7073;42.672;23.256;2023-01-20T19:33:20;66884.56;;;-143.30;100.00
6128;BME280;7073;42.672;23.256;2023-01-20T19:35:47;66884.56;;;-143.30;100.00
6128;BME280;7073;42.672;23.256;2023-01-20T19:38:13;66884.56;;;-143.30;100.00
6128;BME280;7073;42.672;23.256;2023-01-20T19:40:40;66884.56;;;-143.30;100.00
6128;BME280;7073;42.672;23.256;2023-01-20T19:43:07;66884.56;;;-143.30;100.00
6128;BME280;7073;42.672;23.256;2023-01-20T19:45:35;66884.56;;;-143.30;100.00
6128;BME280;7073;42.672;23.256;2023-01-20T19:48:03;66884.56;;;-143.30;100.00
6128;BME280;7073;42.672;23.256;2023-01-20T19:50:30;66884.56;;;-143.30;100.00
6128;BME280;7073;42.672;23.256;2023-01-20T19:52:57;66884.56;;;-143.30;100.00
6128;BME280;7073;42.672;23.256;2023-01-20T19:55:24;66884.56;;;-143.30;100.00
6128;BME280;7073;42.672;23.256;2023-01-20T19:57:51;66884.56;;;-143.30;100.00
6128;BME280;7073;42.672;23.256;2023-01-20T20:00:18;66884.56;;;-143.30;100.00
6128;BME280;7073;42.672;23.256;2023-01-20T20:02:45;66884.56;;;-143.30;100.00
6128;BME280;7073;42.672;23.256;2023-01-20T20:05:13;66884.56;;;-143.30;100.00
6128;BME280;7073;42.672;23.256;2023-01-20T20:07:41;66884.56;;;-143.30;100.00
6128;BME280;7073;42.672;23.256;2023-01-20T20:10:09;66884.56;;;-143.30;100.00
6128;BME280;7073;42.672;23.256;2023-01-20T20:12:36;66884.56;;;-143.30;100.00
6128;BME280;7073;42.672;23.256;2023-01-20T20:15:04;66884.56;;;-143.30;100.00
6128;BME280;7073;42.672;23.256;2023-01-20T20:17:30;66884.56;;;-143.30;100.00
6128;BME280;7073;42.672;23.256;2023-01-20T20:19:57;66884.56;;;-143.30;100.00
6128;BME280;7073;42.672;23.256;2023-01-20T20:22:25;66884.56;;;-143.30;100.00
6128;BME280;7073;42.672;23.256;2023-01-20T20:24:52;66884.56;;;-143.30;100.00
6128;BME280;7073;42.672;23.256;2023-01-20T20:27:19;66884.56;;;-143.30;100.00
6128;BME280;7073;42.672;23.256;2023-01-20T20:29:47;66884.56;;;-143.30;100.00
6128;BME280;7073;42.672;23.256;2023-01-20T20:32:13;66884.56;;;-143.30;100.00
6128;BME280;7073;42.672;23.256;2023-01-20T20:34:41;66884.56;;;-143.30;100.00
6128;BME280;7073;42.672;23.256;2023-01-20T20:37:08;66884.56;;;-143.30;100.00
6128;BME280;7073;42.672;23.256;2023-01-20T20:39:36;66884.56;;;-143.30;100.00
6128;BME280;7073;42.672;23.256;2023-01-20T20:42:03;66884.56;;;-143.30;100.00
6128;BME280;7073;42.672;23.256;2023-01-20T20:44:30;66884.56;;;-143.30;100.00
6128;BME280;7073;42.672;23.256;2023-01-20T20:46:56;66884.56;;;-143.30;100.00
6128;BME280;7073;42.672;23.256;2023-01-20T20:49:23;66884.56;;;-143.30;100.00
6128;BME280;7073;42.672;23.256;2023-01-20T20:51:50;66884.56;;;-143.30;100.00
6128;BME280;7073;42.672;23.256;2023-01-20T20:54:17;66884.56;;;-143.30;100.00
6128;BME280;7073;42.672;23.256;2023-01-20T20:56:45;66884.56;;;-143.30;100.00
6128;BME280;7073;42.672;23.256;2023-01-20T20:59:13;66884.56;;;-143.30;100.00
6128;BME280;7073;42.672;23.256;2023-01-20T21:01:40;66884.56;;;-143.30;100.00
6128;BME280;7073;42.672;23.256;2023-01-20T21:04:07;66884.56;;;-143.30;100.00
6128;BME280;7073;42.672;23.256;2023-01-20T21:06:35;66884.56;;;-143.30;100.00
6128;BME280;7073;42.672;23.256;2023-01-20T21:09:02;66884.56;;;-143.30;100.00
6128;BME280;7073;42.672;23.256;2023-01-20T21:11:29;66884.56;;;-143.30;100.00
6128;BME280;7073;42.672;23.256;2023-01-20T21:13:58;66884.56;;;-143.30;100.00
6128;BME280;7073;42.672;23.256;2023-01-20T21:16:25;66884.56;;;-143.30;100.00
6128;BME280;7073;42.672;23.256;2023-01-20T21:18:53;66884.56;;;-143.30;100.00
6128;BME280;7073;42.672;23.256;2023-01-20T21:21:22;66884.56;;;-143.30;100.00
6128;BME280;7073;42.672;23.256;2023-01-20T21:23:50;66884.56;;;-143.30;100.00
6128;BME280;7073;42.672;23.256;2023-01-20T21:26:18;66884.56;;;-143.30;100.00
6128;BME280;7073;42.672;23.256;2023-01-20T21:28:45;66884.56;;;-143.30;100.00
6128;BME280;7073;42.672;23.256;2023-01-20T21:31:16;66884.56;;;-143.30;100.00
6128;BME280;7073;42.672;23.256;2023-01-20T21:33:45;66884.56;;;-143.30;100.00
6128;BME280;7073;42.672;23.256;2023-01-20T21:36:13;66884.56;;;-143.30;100.00
6128;BME280;7073;42.672;23.256;2023-01-20T21:38:41;66884.56;;;-143.30;100.00
6128;BME280;7073;42.672;23.256;2023-01-20T21:41:15;66884.56;;;-143.30;100.00
6128;BME280;7073;42.672;23.256;2023-01-20T21:43:43;66884.56;;;-143.30;100.00
6128;BME280;7073;42.672;23.256;2023-01-20T21:46:31;66884.56;;;-143.30;100.00
6128;BME280;7073;42.672;23.256;2023-01-20T21:48:59;66884.56;;;-143.30;100.00
6128;BME280;7073;42.672;23.256;2023-01-20T21:51:43;66884.56;;;-143.30;100.00
6128;BME280;7073;42.672;23.256;2023-01-20T21:54:29;66884.56;;;-143.30;100.00
6128;BME280;7073;42.672;23.256;2023-01-20T21:56:56;66884.56;;;-143.30;100.00
6128;BME280;7073;42.672;23.256;2023-01-20T21:59:24;66884.56;;;-143.30;100.00
6128;BME280;7073;42.672;23.256;2023-01-20T22:01:53;66884.56;;;-143.30;100.00
6128;BME280;7073;42.672;23.256;2023-01-20T22:04:20;66884.56;;;-143.30;100.00
6128;BME280;7073;42.672;23.256;2023-01-20T22:06:46;66884.56;;;-143.30;100.00
6128;BME280;7073;42.672;23.256;2023-01-20T22:09:13;66884.56;;;-143.30;100.00
6128;BME280;7073;42.672;23.256;2023-01-20T22:11:40;66884.56;;;-143.30;100.00
6128;BME280;7073;42.672;23.256;2023-01-20T22:14:08;66884.56;;;-143.30;100.00
6128;BME280;7073;42.672;23.256;2023-01-20T22:16:35;66884.56;;;-143.30;100.00